createdAt,value
2018-01-20T00:00:04.195Z,1.2
2018-01-20T00:05:02.650Z,1.2
2018-01-20T00:10:03.194Z,1.2
2018-01-20T00:15:02.792Z,1.3
2018-01-20T00:20:03.310Z,1.6
2018-01-20T00:25:02.863Z,1.6
2018-01-20T00:30:02.383Z,1.6
2018-01-20T00:35:03.064Z,1.3
2018-01-20T00:40:02.614Z,1.3
2018-01-20T00:45:03.069Z,1.3
2018-01-20T00:50:02.547Z,1.3
2018-01-20T00:55:03.030Z,1.3
2018-01-20T01:00:02.480Z,1.6
2018-01-20T01:05:02.573Z,1.6
2018-01-20T01:10:03.330Z,1.3
2018-01-20T01:15:02.866Z,1.2
2018-01-20T01:20:02.545Z,1.2
2018-01-20T01:25:03.018Z,1.3
2018-01-20T01:30:02.465Z,1.2
2018-01-20T01:35:02.903Z,1.2
2018-01-20T01:40:02.605Z,1.2
2018-01-20T01:45:02.963Z,1.2
2018-01-20T01:50:02.413Z,1.2
2018-01-20T01:55:02.884Z,1.2
2018-01-20T02:00:03.368Z,1.2
2018-01-20T02:05:02.930Z,1.1
2018-01-20T02:10:02.576Z,1.1
2018-01-20T02:15:03.284Z,1.1
2018-01-20T02:20:02.852Z,1.1
2018-01-20T02:25:03.259Z,0.8
2018-01-20T02:30:02.794Z,1.1
2018-01-20T02:35:02.436Z,1.2
2018-01-20T02:40:02.977Z,1.2
2018-01-20T02:45:02.423Z,1.2
2018-01-20T02:50:03.079Z,1.1
2018-01-20T02:55:02.620Z,0.8
2018-01-20T03:00:03.229Z,0.8
2018-01-20T03:05:02.838Z,1.1
2018-01-20T03:10:03.290Z,1.2
2018-01-20T03:15:02.645Z,1.2
2018-01-20T03:20:03.220Z,1.2
2018-01-20T03:25:02.671Z,1.2
2018-01-20T03:30:03.297Z,1.2
2018-01-20T03:35:02.756Z,1.2
2018-01-20T03:40:02.421Z,1.2
2018-01-20T03:45:02.823Z,1.2
2018-01-20T03:50:03.287Z,1.2
2018-01-20T03:55:02.688Z,1.2
2018-01-20T04:00:03.281Z,1.3
2018-01-20T04:05:02.826Z,1.3
2018-01-20T04:10:03.379Z,1.3
2018-01-20T04:15:02.795Z,1.3
2018-01-20T04:20:03.266Z,1.3
2018-01-20T04:25:02.719Z,1.3
2018-01-20T04:30:03.284Z,1.2
2018-01-20T04:35:02.799Z,1.2
2018-01-20T04:40:03.338Z,1.2
2018-01-20T04:45:03.005Z,1.2
2018-01-20T04:50:02.624Z,1.2
2018-01-20T04:55:03.239Z,1.2
2018-01-20T05:00:02.796Z,1.2
2018-01-20T05:05:03.211Z,1.2
2018-01-20T05:10:02.714Z,1.2
2018-01-20T05:15:03.343Z,1.2
2018-01-20T05:20:03.003Z,1.2
2018-01-20T05:25:02.462Z,1.1
2018-01-20T05:30:03.307Z,1.2
2018-01-20T05:35:02.853Z,1.2
2018-01-20T05:40:02.471Z,1.2
2018-01-20T05:45:03.057Z,1.2
2018-01-20T05:50:02.549Z,1.3
2018-01-20T05:55:02.969Z,1.3
2018-01-20T06:00:02.426Z,1.3
2018-01-20T06:05:03.025Z,1.3
2018-01-20T06:10:02.760Z,1.3
2018-01-20T06:15:03.201Z,1.2
2018-01-20T06:20:02.772Z,1.2
2018-01-20T06:25:03.355Z,1.2
2018-01-20T06:30:03.005Z,1.2
2018-01-20T06:35:02.620Z,1.2
2018-01-20T06:40:03.086Z,1.2
2018-01-20T06:45:02.642Z,1.1
2018-01-20T06:50:03.215Z,0.8
2018-01-20T06:55:02.780Z,0.8
2018-01-20T07:00:03.180Z,1.1
2018-01-20T07:05:02.814Z,1.1
2018-01-20T07:10:02.470Z,0.8
2018-01-20T07:15:03.061Z,1.1
2018-01-20T07:20:02.506Z,1.2
2018-01-20T07:25:03.092Z,1.1
2018-01-20T07:30:02.841Z,1.2
2018-01-20T07:35:03.321Z,1.2
2018-01-20T07:40:02.961Z,1.2
2018-01-20T07:45:02.440Z,1.1
2018-01-20T07:50:03.038Z,1.2
2018-01-20T07:55:02.658Z,1.2
2018-01-20T08:00:03.146Z,1.2
2018-01-20T08:05:02.559Z,1.2
2018-01-20T08:10:03.064Z,1.2
2018-01-20T08:15:02.521Z,1.2
2018-01-20T08:20:03.171Z,1.2
2018-01-20T08:25:02.833Z,1.3
2018-01-20T08:30:02.375Z,1.3
2018-01-20T08:35:02.923Z,1.6
2018-01-20T08:40:02.462Z,1.6
2018-01-20T08:45:02.913Z,1.7
2018-01-20T08:50:03.406Z,1.7
2018-01-20T08:55:02.867Z,1.8
2018-01-20T09:00:02.524Z,1.8
2018-01-20T09:05:03.156Z,2.0
2018-01-20T09:10:02.634Z,2.0
2018-01-20T09:15:03.009Z,2.0
2018-01-20T09:20:02.500Z,2.0
2018-01-20T09:25:02.989Z,2.2
2018-01-20T09:30:02.416Z,2.4
2018-01-20T09:35:02.970Z,2.4
2018-01-20T09:40:02.501Z,2.4
2018-01-20T09:45:03.071Z,2.5
2018-01-20T09:50:02.526Z,2.5
2018-01-20T09:55:03.575Z,2.7
2018-01-20T10:00:03.164Z,2.7
2018-01-20T10:05:02.744Z,2.7
2018-01-20T10:10:03.284Z,2.7
2018-01-20T10:15:02.888Z,2.9
2018-01-20T10:20:02.494Z,2.9
2018-01-20T10:25:02.846Z,2.9
2018-01-20T10:30:02.563Z,2.9
2018-01-20T10:35:03.307Z,2.9
2018-01-20T10:40:02.840Z,3.0
2018-01-20T10:45:02.367Z,2.9
2018-01-20T10:50:02.915Z,3.0
2018-01-20T10:55:03.345Z,3.0
2018-01-20T11:00:02.910Z,3.2
2018-01-20T11:05:02.514Z,3.2
2018-01-20T11:10:03.180Z,3.2
2018-01-20T11:15:02.549Z,3.2
2018-01-20T11:20:03.235Z,3.2
2018-01-20T11:25:02.768Z,3.2
2018-01-20T11:30:02.376Z,3.2
2018-01-20T11:35:02.952Z,3.2
2018-01-20T11:40:02.500Z,3.5
2018-01-20T11:45:03.077Z,3.5
2018-01-20T11:50:02.745Z,3.5
2018-01-20T11:55:03.188Z,3.5
2018-01-20T12:00:02.787Z,3.5
2018-01-20T12:05:02.410Z,3.5
2018-01-20T12:10:03.063Z,3.5
2018-01-20T12:15:02.494Z,3.5
2018-01-20T12:20:03.202Z,3.7
2018-01-20T12:25:02.698Z,3.7
2018-01-20T12:30:03.323Z,3.7
2018-01-20T12:35:02.940Z,3.7
2018-01-20T12:40:02.417Z,3.7
2018-01-20T12:45:03.050Z,3.7
2018-01-20T12:50:02.530Z,3.7
2018-01-20T12:55:03.138Z,3.7
2018-01-20T13:00:02.841Z,3.7
2018-01-20T13:05:02.483Z,3.7
2018-01-20T13:10:03.158Z,3.7
2018-01-20T13:15:02.559Z,3.7
2018-01-20T13:20:03.150Z,3.5
2018-01-20T13:25:02.615Z,3.7
2018-01-20T13:30:03.172Z,3.7
2018-01-20T13:35:02.699Z,3.7
2018-01-20T13:40:03.357Z,3.7
2018-01-20T13:45:02.790Z,3.7
2018-01-20T13:50:02.535Z,3.7
2018-01-20T13:55:03.012Z,3.7
2018-01-20T14:00:02.871Z,3.7
2018-01-20T14:05:02.666Z,3.7
2018-01-20T14:10:02.387Z,3.7
2018-01-20T14:15:02.969Z,3.5
2018-01-20T14:20:02.731Z,3.5
2018-01-20T14:25:03.156Z,3.5
2018-01-20T14:30:02.590Z,3.2
2018-01-20T14:35:03.194Z,3.5
2018-01-20T14:40:02.777Z,3.5
2018-01-20T14:45:02.502Z,3.2
2018-01-20T14:50:02.975Z,3.2
2018-01-20T14:55:02.805Z,3.2
2018-01-20T15:00:02.416Z,3.2
2018-01-20T15:05:03.154Z,3.0
2018-01-20T15:10:02.691Z,2.7
2018-01-20T15:15:03.311Z,2.5
2018-01-20T15:20:03.174Z,2.5
2018-01-20T15:25:03.387Z,2.4
2018-01-20T15:30:02.921Z,2.4
2018-01-20T15:35:02.758Z,2.2
2018-01-20T15:40:02.446Z,2.2
2018-01-20T15:45:03.032Z,2.4
2018-01-20T15:50:02.683Z,2.4
2018-01-20T15:55:03.354Z,2.4
2018-01-20T16:00:02.805Z,2.4
2018-01-20T16:05:02.451Z,2.2
2018-01-20T16:10:03.153Z,2.0
2018-01-20T16:15:02.722Z,2.0
2018-01-20T16:20:02.510Z,2.0
2018-01-20T16:25:03.047Z,2.0
2018-01-20T16:30:02.562Z,2.2
2018-01-20T16:35:03.161Z,2.0
2018-01-20T16:40:02.804Z,2.4
2018-01-20T16:45:03.356Z,2.2
2018-01-20T16:50:02.858Z,2.2
2018-01-20T16:55:02.526Z,2.4
2018-01-20T17:00:03.082Z,2.4
2018-01-20T17:05:02.690Z,2.5
2018-01-20T17:10:03.380Z,2.7
2018-01-20T17:15:02.895Z,2.7
2018-01-20T17:20:02.386Z,2.7
2018-01-20T17:25:02.916Z,2.7
2018-01-20T17:30:02.414Z,2.5
2018-01-20T17:35:02.946Z,2.5
2018-01-20T17:40:02.634Z,2.5
2018-01-20T17:45:03.275Z,2.5
2018-01-20T17:50:02.839Z,2.5
2018-01-20T17:55:02.408Z,2.4
2018-01-20T18:00:02.880Z,2.4
2018-01-20T18:05:02.523Z,2.4
2018-01-20T18:10:03.174Z,2.4
2018-01-20T18:15:02.748Z,2.2
2018-01-20T18:20:03.202Z,2.4
2018-01-20T18:25:02.908Z,2.4
2018-01-20T18:30:02.628Z,2.4
2018-01-20T18:35:03.210Z,2.4
2018-01-20T18:40:02.754Z,2.4
2018-01-20T18:45:02.378Z,2.4
2018-01-20T18:50:03.065Z,2.4
2018-01-20T18:55:02.742Z,2.2
2018-01-20T19:00:03.232Z,2.2
2018-01-20T19:05:02.835Z,2.2
2018-01-20T19:10:02.504Z,2.2
2018-01-20T19:15:03.107Z,2.2
2018-01-20T19:20:02.692Z,2.2
2018-01-20T19:25:02.359Z,2.0
2018-01-20T19:30:03.043Z,2.0
2018-01-20T19:35:02.688Z,1.8
2018-01-20T19:40:03.239Z,2.0
2018-01-20T19:45:02.736Z,1.8
2018-01-20T19:50:02.388Z,1.8
2018-01-20T19:55:03.068Z,1.8
2018-01-20T20:00:02.523Z,1.8
2018-01-20T20:05:03.021Z,2.0
2018-01-20T20:10:02.683Z,1.8
2018-01-20T20:15:03.274Z,2.0
2018-01-20T20:20:03.021Z,2.0
2018-01-20T20:25:02.508Z,2.0
2018-01-20T20:30:03.154Z,2.0
2018-01-20T20:35:02.855Z,2.0
2018-01-20T20:40:02.471Z,2.0
2018-01-20T20:45:03.101Z,2.0
2018-01-20T20:50:02.712Z,2.0
2018-01-20T20:55:03.268Z,2.0
2018-01-20T21:00:02.725Z,2.0
2018-01-20T21:05:02.452Z,2.0
2018-01-20T21:10:03.141Z,2.0
2018-01-20T21:15:02.684Z,1.8
2018-01-20T21:20:02.530Z,1.8
2018-01-20T21:25:03.213Z,1.8
2018-01-20T21:30:02.865Z,1.7
2018-01-20T21:35:02.618Z,1.8
2018-01-20T21:40:03.272Z,1.7
2018-01-20T21:45:03.067Z,1.8
2018-01-20T21:50:02.563Z,2.0
2018-01-20T21:55:03.087Z,1.8
2018-01-20T22:00:02.929Z,1.8
2018-01-20T22:05:02.509Z,1.7
2018-01-20T22:10:03.105Z,1.7
2018-01-20T22:15:02.725Z,1.7
2018-01-20T22:20:02.369Z,1.7
2018-01-20T22:25:02.913Z,1.7
2018-01-20T22:30:03.541Z,1.7
2018-01-20T22:35:03.173Z,1.7
2018-01-20T22:40:02.725Z,1.7
2018-01-20T22:45:02.513Z,1.7
2018-01-20T22:50:03.266Z,1.7
2018-01-20T22:55:02.950Z,1.7
2018-01-20T23:00:02.563Z,1.7
2018-01-20T23:05:03.340Z,1.7
2018-01-20T23:10:02.923Z,1.6
2018-01-20T23:15:02.429Z,1.7
2018-01-20T23:20:03.095Z,1.7
2018-01-20T23:25:02.698Z,1.6
2018-01-20T23:30:03.193Z,1.7
2018-01-20T23:35:02.815Z,1.7
2018-01-20T23:40:03.379Z,1.7
2018-01-20T23:45:02.897Z,1.7
2018-01-20T23:50:02.457Z,1.7
2018-01-20T23:55:03.019Z,1.7
